Time;durP1;ratioP1;P1;durP2;ratioP2;P2;SDS_P1;SDS_P2;PMS_P1;PMS_P2;Temp;Humidity;BMP_temperature;BMP_pressure;BME280_temperature;BME280_humidity;BME280_pressure;Samples;Min_cycle;Max_cycle;Signal;HPM_P1;HPM_P2
2024/02/07 00:01:00;;;;;;;;;;;;;;;;;;5054975;28;20346;-90
2024/02/07 00:03:27;;;;;;;;;;;;;;;;;;5052421;28;20427;-91
2024/02/07 00:05:54;;;;;;;;;;;;;;;;;;5054038;28;19936;-88
2024/02/07 00:08:21;;;;;;;;;;;;;;;;;;5053627;28;19982;-88
2024/02/07 00:10:48;;;;;;;;;;;;;;;;;;5044427;28;19929;-88
2024/02/07 00:13:15;;;;;;;;;;;;;;;;;;5040960;28;19936;-88
2024/02/07 00:15:42;;;;;;;;;;;;;;;;;;5053056;28;19974;-86
2024/02/07 00:18:09;;;;;;;;;;;;;;;;;;5039822;28;20317;-88
2024/02/07 00:20:36;;;;;;;;;;;;;;;;;;5050466;28;19929;-88
2024/02/07 00:23:07;;;;;;;;;;;;;;;;;;5051304;28;19932;-89
2024/02/07 00:25:34;;;;;;;;;;;;;;;;;;5046156;28;20016;-86
2024/02/07 00:28:01;;;;;;;;;;;;;;;;;;5050042;28;19979;-91
2024/02/07 00:30:29;;;;;;;;;;;;;;;;;;5041218;28;19936;-89
2024/02/07 00:32:56;;;;;;;;;;;;;;;;;;5042331;28;19935;-89
2024/02/07 00:35:23;;;;;;;;;;;;;;;;;;5040745;28;19929;-87
2024/02/07 00:37:50;;;;;;;;;;;;;;;;;;5048792;28;20006;-86
2024/02/07 00:40:17;;;;;;;;;;;;;;;;;;5054700;28;19937;-87
2024/02/07 00:42:46;;;;;;;;;;;;;;;;;;5059091;28;19925;-90
2024/02/07 00:45:13;;;;;;;;;;;;;;;;;;5052829;28;19988;-91
2024/02/07 00:47:40;;;;;;;;;;;;;;;;;;5050081;28;19924;-91
2024/02/07 00:50:07;;;;;;;;;;;;;;;;;;5051296;28;19998;-89
2024/02/07 00:52:35;;;;;;;;;;;;;;;;;;5053631;28;19971;-93
2024/02/07 00:55:02;;;;;;;;;;;;;;;;;;5047214;28;20028;-89
2024/02/07 00:57:29;;;;;;;;;;;;;;;;;;5046251;28;19990;-89
2024/02/07 00:59:56;;;;;;;;;;;;;;;;;;5053416;28;20006;-89
2024/02/07 01:02:23;;;;;;;;;;;;;;;;;;5052809;28;19933;-90
2024/02/07 01:04:51;;;;;;;;;;;;;;;;;;5056116;28;19976;-90
2024/02/07 01:07:18;;;;;;;;;;;;;;;;;;5048440;28;19932;-88
2024/02/07 01:09:45;;;;;;;;;;;;;;;;;;5056713;28;19991;-89
2024/02/07 01:12:12;;;;;;;;;;;;;;;;;;5050810;28;19925;-91
2024/02/07 01:14:39;;;;;;;;;;;;;;;;;;5053435;28;19983;-90
2024/02/07 01:17:06;;;;;;;;;;;;;;;;;;5045575;28;19933;-91
2024/02/07 01:19:33;;;;;;;;;;;;;;;;;;5054865;28;19940;-91
2024/02/07 01:22:01;;;;;;;;;;;;;;;;;;5041268;28;19929;-89
2024/02/07 01:24:29;;;;;;;;;;;;;;;;;;5048106;28;19929;-88
2024/02/07 01:26:56;;;;;;;;;;;;;;;;;;5041174;28;20027;-89
2024/02/07 01:29:23;;;;;;;;;;;;;;;;;;5052616;28;20432;-90
2024/02/07 01:31:51;;;;;;;;;;;;;;;;;;5043963;28;19990;-88
2024/02/07 01:34:18;;;;;;;;;;;;;;;;;;5055609;28;20330;-90
2024/02/07 01:36:46;;;;;;;;;;;;;;;;;;5052294;28;19971;-88
2024/02/07 01:39:13;;;;;;;;;;;;;;;;;;5039272;28;20016;-90
2024/02/07 01:44:21;;;;;;;;;;;;;;;;;;5053613;28;19936;-89
2024/02/07 01:46:48;;;;;;;;;;;;;;;;;;5056616;28;20378;-90
2024/02/07 01:49:15;;;;;;;;;;;;;;;;;;5052676;28;20337;-90
2024/02/07 01:51:42;;;;;;;;;;;;;;;;;;5058014;28;19936;-87
2024/02/07 01:54:09;;;;;;;;;;;;;;;;;;5049436;28;20347;-89
2024/02/07 01:56:37;;;;;;;;;;;;;;;;;;5055650;28;20364;-85
2024/02/07 01:59:04;;;;;;;;;;;;;;;;;;5059180;28;19932;-88
2024/02/07 02:01:31;;;;;;;;;;;;;;;;;;5054924;28;20006;-89
2024/02/07 02:03:58;;;;;;;;;;;;;;;;;;5055014;28;19929;-87
2024/02/07 02:06:25;;;;;;;;;;;;;;;;;;5048133;28;19975;-91
2024/02/07 02:08:54;;;;;;;;;;;;;;;;;;5049491;28;20461;-90
2024/02/07 02:11:21;;;;;;;;;;;;;;;;;;5046058;28;19935;-91
2024/02/07 02:13:49;;;;;;;;;;;;;;;;;;5044115;28;19983;-91
2024/02/07 02:16:16;;;;;;;;;;;;;;;;;;5051013;28;19987;-87
2024/02/07 02:18:43;;;;;;;;;;;;;;;;;;5056188;28;19933;-91
2024/02/07 02:21:10;;;;;;;;;;;;;;;;;;5041127;28;19928;-88
2024/02/07 02:23:42;;;;;;;;;;;;;;;;;;5049415;28;19929;-89
2024/02/07 02:26:10;;;;;;;;;;;;;;;;;;5051637;28;19929;-90
2024/02/07 02:28:37;;;;;;;;;;;;;;;;;;5057647;28;19935;-88
2024/02/07 02:31:04;;;;;;;;;;;;;;;;;;5057378;28;19936;-87
2024/02/07 02:33:31;;;;;;;;;;;;;;;;;;5056530;28;19988;-89
2024/02/07 02:35:58;;;;;;;;;;;;;;;;;;5041401;28;19929;-86
2024/02/07 02:38:25;;;;;;;;;;;;;;;;;;5059762;28;20335;-88
2024/02/07 02:40:54;;;;;;;;;;;;;;;;;;5054408;28;20020;-87
2024/02/07 02:43:22;;;;;;;;;;;;;;;;;;5041029;28;19929;-89
2024/02/07 02:45:49;;;;;;;;;;;;;;;;;;5044255;28;20346;-85
2024/02/07 02:48:16;;;;;;;;;;;;;;;;;;5047989;28;19983;-88
2024/02/07 02:50:43;;;;;;;;;;;;;;;;;;5039003;28;19929;-87
2024/02/07 02:53:10;;;;;;;;;;;;;;;;;;5050999;28;19929;-87
2024/02/07 02:55:37;;;;;;;;;;;;;;;;;;5037367;28;19929;-87
2024/02/07 02:58:05;;;;;;;;;;;;;;;;;;5040022;28;19929;-90
2024/02/07 03:00:32;;;;;;;;;;;;;;;;;;5041733;28;19929;-88
2024/02/07 03:02:59;;;;;;;;;;;;;;;;;;5050837;28;19967;-90
2024/02/07 03:05:45;;;;;;;;;;;;;;;;;;5047294;28;19974;-87
2024/02/07 03:08:21;;;;;;;;;;;;;;;;;;5041504;28;19936;-88
2024/02/07 03:10:49;;;;;;;;;;;;;;;;;;5045848;28;19929;-87
2024/02/07 03:13:16;;;;;;;;;;;;;;;;;;5050369;28;19956;-90
2024/02/07 03:15:43;;;;;;;;;;;;;;;;;;5040344;28;19934;-88
2024/02/07 03:18:10;;;;;;;;;;;;;;;;;;5052753;28;19999;-88
2024/02/07 03:20:37;;;;;;;;;;;;;;;;;;5048543;28;20303;-87
2024/02/07 03:23:04;;;;;;;;;;;;;;;;;;5051492;28;19928;-89
2024/02/07 03:25:33;;;;;;;;;;;;;;;;;;5045832;28;19925;-90
2024/02/07 03:28:01;;;;;;;;;;;;;;;;;;5054022;28;20310;-89
2024/02/07 03:30:28;;;;;;;;;;;;;;;;;;5051958;28;19929;-88
2024/02/07 03:32:56;;;;;;;;;;;;;;;;;;5048077;28;19933;-88
2024/02/07 03:35:23;;;;;;;;;;;;;;;;;;5048810;28;19929;-88
2024/02/07 03:37:50;;;;;;;;;;;;;;;;;;5053260;28;19936;-87
2024/02/07 03:40:18;;;;;;;;;;;;;;;;;;5051875;28;19929;-90
2024/02/07 03:42:46;;;;;;;;;;;;;;;;;;5046502;28;19933;-87
2024/02/07 03:45:15;;;;;;;;;;;;;;;;;;5051039;28;19929;-89
2024/02/07 03:47:42;;;;;;;;;;;;;;;;;;5042835;28;19998;-89
2024/02/07 03:50:10;;;;;;;;;;;;;;;;;;5051002;28;19929;-88
2024/02/07 03:52:38;;;;;;;;;;;;;;;;;;5059007;28;19929;-88
2024/02/07 03:55:05;;;;;;;;;;;;;;;;;;5049211;28;19932;-90
2024/02/07 03:57:32;;;;;;;;;;;;;;;;;;5053723;28;20345;-89
2024/02/07 03:59:59;;;;;;;;;;;;;;;;;;5051619;28;19928;-88
2024/02/07 04:02:26;;;;;;;;;;;;;;;;;;5045768;28;19929;-89
2024/02/07 04:04:53;;;;;;;;;;;;;;;;;;5048140;28;20343;-85
2024/02/07 04:07:20;;;;;;;;;;;;;;;;;;5039625;28;19929;-85
2024/02/07 04:09:47;;;;;;;;;;;;;;;;;;5050743;28;19982;-81
2024/02/07 05:17:15;;;;;;;;;;;;;;;;;;5039839;28;19991;-76
2024/02/07 05:19:42;;;;;;;;;;;;;;;;;;5038723;28;19936;-77
2024/02/07 05:22:10;;;;;;;;;;;;;;;;;;5049783;28;19929;-79
2024/02/07 05:24:39;;;;;;;;;;;;;;;;;;5042398;28;20406;-75
2024/02/07 05:27:07;;;;;;;;;;;;;;;;;;5040334;28;19933;-75
2024/02/07 05:29:34;;;;;;;;;;;;;;;;;;5042536;28;19935;-77
2024/02/07 05:32:01;;;;;;;;;;;;;;;;;;5033252;28;20012;-77
2024/02/07 05:34:28;;;;;;;;;;;;;;;;;;5051361;28;19929;-77
2024/02/07 05:36:55;;;;;;;;;;;;;;;;;;5047297;28;19928;-75
2024/02/07 05:39:23;;;;;;;;;;;;;;;;;;5049221;28;20023;-77
2024/02/07 05:41:50;;;;;;;;;;;;;;;;;;5044310;28;20027;-75
2024/02/07 05:44:17;;;;;;;;;;;;;;;;;;5051476;28;19983;-76
2024/02/07 05:46:44;;;;;;;;;;;;;;;;;;5037746;28;19967;-77
2024/02/07 05:49:11;;;;;;;;;;;;;;;;;;5042820;28;20010;-76
2024/02/07 05:51:39;;;;;;;;;;;;;;;;;;5043865;28;20030;-76
2024/02/07 05:54:07;;;;;;;;;;;;;;;;;;5038966;28;20399;-76
2024/02/07 05:56:34;;;;;;;;;;;;;;;;;;5049249;28;19972;-75
2024/02/07 05:59:01;;;;;;;;;;;;;;;;;;5042460;28;19929;-76
2024/02/07 06:01:29;;;;;;;;;;;;;;;;;;5047188;28;20388;-75
2024/02/07 06:03:56;;;;;;;;;;;;;;;;;;5041209;28;19982;-76
2024/02/07 06:06:24;;;;;;;;;;;;;;;;;;5040500;28;20302;-75
2024/02/07 06:08:52;;;;;;;;;;;;;;;;;;5042438;28;19929;-75
2024/02/07 06:11:21;;;;;;;;;;;;;;;;;;5040631;28;19929;-73
2024/02/07 06:13:48;;;;;;;;;;;;;;;;;;5049925;28;19972;-73
2024/02/07 06:16:15;;;;;;;;;;;;;;;;;;5049227;28;19971;-76
2024/02/07 06:18:42;;;;;;;;;;;;;;;;;;5049526;28;20399;-74
2024/02/07 06:21:09;;;;;;;;;;;;;;;;;;5048619;28;19936;-74
2024/02/07 06:23:37;;;;;;;;;;;;;;;;;;5039132;28;19932;-77
2024/02/07 06:26:04;;;;;;;;;;;;;;;;;;5047745;28;19936;-74
2024/02/07 06:28:31;;;;;;;;;;;;;;;;;;5050214;28;19936;-74
2024/02/07 06:30:58;;;;;;;;;;;;;;;;;;5038621;28;19928;-74
2024/02/07 06:33:25;;;;;;;;;;;;;;;;;;5042488;28;20032;-76
2024/02/07 06:35:52;;;;;;;;;;;;;;;;;;5044705;28;19928;-74
2024/02/07 06:38:19;;;;;;;;;;;;;;;;;;5044397;28;19972;-74
2024/02/07 06:40:46;;;;;;;;;;;;;;;;;;5043165;28;19936;-76
2024/02/07 06:43:13;;;;;;;;;;;;;;;;;;5045537;28;20367;-74
2024/02/07 06:45:40;;;;;;;;;;;;;;;;;;5037604;28;19974;-77
2024/02/07 06:48:08;;;;;;;;;;;;;;;;;;5049975;28;19928;-74
2024/02/07 06:50:35;;;;;;;;;;;;;;;;;;5039972;28;19955;-76
2024/02/07 06:53:02;;;;;;;;;;;;;;;;;;5039887;28;19937;-76
2024/02/07 06:55:29;;;;;;;;;;;;;;;;;;5037461;28;20442;-74
2024/02/07 06:57:56;;;;;;;;;;;;;;;;;;5039410;28;19936;-76
2024/02/07 07:00:24;;;;;;;;;;;;;;;;;;5039972;28;20039;-75
2024/02/07 07:02:51;;;;;;;;;;;;;;;;;;5050174;28;19936;-76
2024/02/07 07:05:24;;;;;;;;;;;;;;;;;;5043617;28;20003;-76
2024/02/07 07:07:51;;;;;;;;;;;;;;;;;;5048787;28;19948;-77
2024/02/07 07:10:19;;;;;;;;;;;;;;;;;;5029764;28;19929;-74
2024/02/07 07:12:46;;;;;;;;;;;;;;;;;;5038094;28;19944;-78
2024/02/07 07:15:13;;;;;;;;;;;;;;;;;;5037796;28;20293;-75
2024/02/07 07:17:40;;;;;;;;;;;;;;;;;;5039735;28;19939;-76
2024/02/07 07:20:11;;;;;;;;;;;;;;;;;;5046898;28;19995;-74
2024/02/07 07:22:38;;;;;;;;;;;;;;;;;;5031654;28;19975;-72
2024/02/07 07:25:05;;;;;;;;;;;;;;;;;;5049282;28;20006;-70
2024/02/07 07:27:32;;;;;;;;;;;;;;;;;;5039780;28;20400;-75
2024/02/07 07:29:59;;;;;;;;;;;;;;;;;;5040883;28;20008;-81
2024/02/07 07:32:26;;;;;;;;;;;;;;;;;;5043788;28;19932;-77
2024/02/07 07:34:53;;;;;;;;;;;;;;;;;;5037695;28;20015;-79
2024/02/07 07:37:20;;;;;;;;;;;;;;;;;;5049262;28;20437;-77
2024/02/07 07:39:47;;;;;;;;;;;;;;;;;;5041257;28;20414;-74
2024/02/07 07:42:15;;;;;;;;;;;;;;;;;;5042123;28;19935;-74
2024/02/07 07:44:42;;;;;;;;;;;;;;;;;;5037728;28;19933;-76
2024/02/07 07:47:09;;;;;;;;;;;;;;;;;;5049060;28;19928;-73
2024/02/07 07:49:38;;;;;;;;;;;;;;;;;;5045896;28;20471;-74
2024/02/07 07:52:05;;;;;;;;;;;;;;;;;;5045578;28;20418;-76
2024/02/07 07:54:32;;;;;;;;;;;;;;;;;;5043449;28;19944;-75
2024/02/07 07:56:59;;;;;;;;;;;;;;;;;;5096425;22;19928;-74
2024/02/07 07:59:27;;;;;;;;;;;;;;;;;;5079444;28;19935;-77
2024/02/07 08:01:54;;;;;;;;;;;;;;;;;;5080576;28;19928;-76
2024/02/07 08:04:21;;;;;;;;;;;;;;;;;;5080277;28;19929;-76
2024/02/07 08:06:48;;;;;;;;;;;;;;;;;;5070369;28;20388;-75
2024/02/07 08:09:15;;;;;;;;;;;;;;;;;;5064588;28;20497;-74
2024/02/07 08:11:42;;;;;;;;;;;;;;;;;;5073317;28;20028;-74
2024/02/07 08:14:10;;;;;;;;;;;;;;;;;;5058544;28;19939;-77
2024/02/07 08:16:37;;;;;;;;;;;;;;;;;;5053924;28;19939;-75
2024/02/07 08:19:04;;;;;;;;;;;;;;;;;;5065687;28;19951;-74
2024/02/07 08:21:31;;;;;;;;;;;;;;;;;;5071229;28;19982;-74
2024/02/07 08:23:58;;;;;;;;;;;;;;;;;;5082867;28;19935;-75
2024/02/07 08:26:25;;;;;;;;;;;;;;;;;;5073047;28;19971;-75
2024/02/07 08:28:52;;;;;;;;;;;;;;;;;;5064131;28;19990;-75
2024/02/07 08:31:20;;;;;;;;;;;;;;;;;;5063691;28;19964;-74
2024/02/07 08:33:46;;;;;;;;;;;;;;;;;;5073462;28;19936;-74
2024/02/07 08:36:13;;;;;;;;;;;;;;;;;;5074150;28;19948;-74
2024/02/07 08:38:41;;;;;;;;;;;;;;;;;;5077043;28;19935;-78
2024/02/07 08:41:08;;;;;;;;;;;;;;;;;;5070316;28;20398;-75
2024/02/07 08:43:35;;;;;;;;;;;;;;;;;;5065022;28;19939;-76
2024/02/07 08:46:02;;;;;;;;;;;;;;;;;;5067305;28;20687;-73
2024/02/07 08:48:29;;;;;;;;;;;;;;;;;;5063089;28;20028;-72
2024/02/07 08:50:56;;;;;;;;;;;;;;;;;;5066547;28;19928;-73
2024/02/07 08:53:24;;;;;;;;;;;;;;;;;;5060076;28;20444;-73
2024/02/07 08:55:51;;;;;;;;;;;;;;;;;;5068792;28;19974;-73
2024/02/07 08:58:18;;;;;;;;;;;;;;;;;;5071009;28;20386;-73
2024/02/07 09:00:45;;;;;;;;;;;;;;;;;;5057421;28;20047;-74
2024/02/07 09:03:14;;;;;;;;;;;;;;;;;;5055201;28;20374;-74
2024/02/07 09:05:41;;;;;;;;;;;;;;;;;;5063518;28;20017;-74
2024/02/07 09:08:08;;;;;;;;;;;;;;;;;;5068847;28;19928;-73
2024/02/07 09:10:35;;;;;;;;;;;;;;;;;;5066761;28;19982;-74
2024/02/07 09:13:02;;;;;;;;;;;;;;;;;;5074991;28;19952;-72
2024/02/07 09:15:29;;;;;;;;;;;;;;;;;;5068266;28;19951;-74
2024/02/07 09:17:56;;;;;;;;;;;;;;;;;;5070646;28;20341;-75
2024/02/07 09:20:23;;;;;;;;;;;;;;;;;;5067434;28;19960;-75
2024/02/07 09:22:50;;;;;;;;;;;;;;;;;;5082972;28;19952;-76
2024/02/07 09:25:17;;;;;;;;;;;;;;;;;;5080244;28;19928;-75
2024/02/07 09:27:44;;;;;;;;;;;;;;;;;;5080813;28;20671;-76
2024/02/07 09:30:11;;;;;;;;;;;;;;;;;;5075055;28;19974;-71
2024/02/07 09:32:38;;;;;;;;;;;;;;;;;;5072088;28;20437;-72
2024/02/07 09:35:06;;;;;;;;;;;;;;;;;;5081134;28;19932;-67
2024/02/07 09:37:36;;;;;;;;;;;;;;;;;;5061794;28;20375;-74
2024/02/07 09:40:03;;;;;;;;;;;;;;;;;;5076920;28;20025;-76
2024/02/07 09:42:30;;;;;;;;;;;;;;;;;;5086545;28;19990;-78
2024/02/07 09:44:57;;;;;;;;;;;;;;;;;;5078390;28;21122;-76
2024/02/07 09:47:25;;;;;;;;;;;;;;;;;;5084848;28;20010;-77
2024/02/07 09:49:52;;;;;;;;;;;;;;;;;;5071351;28;20027;-76
2024/02/07 09:52:19;;;;;;;;;;;;;;;;;;5077454;28;19935;-75
2024/02/07 09:54:47;;;;;;;;;;;;;;;;;;5073173;28;19968;-76
2024/02/07 09:57:14;;;;;;;;;;;;;;;;;;5071564;28;19933;-75
2024/02/07 09:59:41;;;;;;;;;;;;;;;;;;5078347;28;19928;-75
2024/02/07 10:02:08;;;;;;;;;;;;;;;;;;5078773;28;20024;-73
2024/02/07 10:04:35;;;;;;;;;;;;;;;;;;5072161;28;20430;-74
2024/02/07 10:07:02;;;;;;;;;;;;;;;;;;5080513;28;19967;-74
2024/02/07 10:09:30;;;;;;;;;;;;;;;;;;5075785;28;19981;-75
2024/02/07 10:11:57;;;;;;;;;;;;;;;;;;5079763;28;19928;-74
2024/02/07 10:14:24;;;;;;;;;;;;;;;;;;5079847;28;19998;-74
2024/02/07 10:16:51;;;;;;;;;;;;;;;;;;5089225;28;20032;-74
2024/02/07 10:19:18;;;;;;;;;;;;;;;;;;5080153;28;19935;-74
2024/02/07 10:21:45;;;;;;;;;;;;;;;;;;5066966;28;19929;-74
2024/02/07 10:24:12;;;;;;;;;;;;;;;;;;5061999;28;19979;-75
2024/02/07 10:26:39;;;;;;;;;;;;;;;;;;5090353;28;19935;-75
2024/02/07 10:29:06;;;;;;;;;;;;;;;;;;5077408;28;19957;-75
2024/02/07 10:31:33;;;;;;;;;;;;;;;;;;5081547;28;19928;-73
2024/02/07 10:34:00;;;;;;;;;;;;;;;;;;5079703;28;19974;-73
2024/02/07 10:36:27;;;;;;;;;;;;;;;;;;5090583;28;20399;-73
2024/02/07 10:38:54;;;;;;;;;;;;;;;;;;5077428;28;19932;-74
2024/02/07 10:41:21;;;;;;;;;;;;;;;;;;5071925;28;19975;-74
2024/02/07 10:43:48;;;;;;;;;;;;;;;;;;5078797;28;19934;-78
2024/02/07 10:46:17;;;;;;;;;;;;;;;;;;5070987;28;19968;-75
2024/02/07 10:48:44;;;;;;;;;;;;;;;;;;5072821;28;19931;-75
2024/02/07 10:51:11;;;;;;;;;;;;;;;;;;5069549;28;19928;-76
2024/02/07 10:53:38;;;;;;;;;;;;;;;;;;5082315;28;19998;-75
2024/02/07 10:56:06;;;;;;;;;;;;;;;;;;5081603;28;20439;-75
2024/02/07 10:58:33;;;;;;;;;;;;;;;;;;5089985;28;20303;-77
2024/02/07 11:01:00;;;;;;;;;;;;;;;;;;5081820;28;19928;-75
2024/02/07 11:03:29;;;;;;;;;;;;;;;;;;5070934;28;19934;-76
2024/02/07 11:05:57;;;;;;;;;;;;;;;;;;5074337;28;19936;-77
2024/02/07 11:08:24;;;;;;;;;;;;;;;;;;5066561;28;19993;-75
2024/02/07 11:10:51;;;;;;;;;;;;;;;;;;5059846;28;20381;-74
2024/02/07 11:13:18;;;;;;;;;;;;;;;;;;5078199;28;19990;-75
2024/02/07 11:15:45;;;;;;;;;;;;;;;;;;5074599;28;19928;-73
2024/02/07 11:18:12;;;;;;;;;;;;;;;;;;5064466;28;19928;-74
2024/02/07 11:20:39;;;;;;;;;;;;;;;;;;5067773;28;19944;-72
2024/02/07 11:23:06;;;;;;;;;;;;;;;;;;5081689;28;19925;-73
2024/02/07 11:25:33;;;;;;;;;;;;;;;;;;5075126;28;19929;-71
2024/02/07 11:28:00;;;;;;;;;;;;;;;;;;5070517;28;19928;-75
2024/02/07 11:30:28;;;;;;;;;;;;;;;;;;5082897;28;20364;-74
2024/02/07 11:32:55;;;;;;;;;;;;;;;;;;5076609;28;20312;-70
2024/02/07 11:35:22;;;;;;;;;;;;;;;;;;5069503;28;19929;-74
2024/02/07 11:37:49;;;;;;;;;;;;;;;;;;5071991;28;19951;-77
2024/02/07 11:40:17;;;;;;;;;;;;;;;;;;5070272;28;19968;-74
2024/02/07 11:42:44;;;;;;;;;;;;;;;;;;5073545;28;19936;-76
2024/02/07 11:45:11;;;;;;;;;;;;;;;;;;5068840;28;20363;-75
2024/02/07 11:47:42;;;;;;;;;;;;;;;;;;5075581;28;19928;-75
2024/02/07 11:50:09;;;;;;;;;;;;;;;;;;5077131;28;20011;-75
2024/02/07 11:52:36;;;;;;;;;;;;;;;;;;5071124;28;19936;-76
2024/02/07 11:55:03;;;;;;;;;;;;;;;;;;5073681;28;20377;-76
2024/02/07 11:57:30;;;;;;;;;;;;;;;;;;5087517;28;19954;-75
2024/02/07 11:59:57;;;;;;;;;;;;;;;;;;5073119;28;20034;-75
2024/02/07 12:02:25;;;;;;;;;;;;;;;;;;5070032;28;19982;-76
2024/02/07 12:04:52;;;;;;;;;;;;;;;;;;5070923;28;19975;-74
2024/02/07 12:07:19;;;;;;;;;;;;;;;;;;5067445;28;19985;-74
2024/02/07 12:09:46;;;;;;;;;;;;;;;;;;5076964;28;20398;-75
2024/02/07 12:12:13;;;;;;;;;;;;;;;;;;5068526;28;19972;-75
2024/02/07 12:14:41;;;;;;;;;;;;;;;;;;5072369;28;19929;-75
2024/02/07 12:17:08;;;;;;;;;;;;;;;;;;5072269;28;19935;-77
2024/02/07 12:19:35;;;;;;;;;;;;;;;;;;5073610;28;19936;-72
2024/02/07 12:22:02;;;;;;;;;;;;;;;;;;5063228;28;20008;-77
2024/02/07 12:24:29;;;;;;;;;;;;;;;;;;5069340;28;19960;-81
2024/02/07 12:26:56;;;;;;;;;;;;;;;;;;5069663;28;19936;-77
2024/02/07 12:29:23;;;;;;;;;;;;;;;;;;5074772;28;19969;-76
2024/02/07 12:31:52;;;;;;;;;;;;;;;;;;5074481;28;19936;-75
2024/02/07 12:34:19;;;;;;;;;;;;;;;;;;5066862;28;19929;-76
2024/02/07 12:36:46;;;;;;;;;;;;;;;;;;5073903;28;19982;-76
2024/02/07 12:39:13;;;;;;;;;;;;;;;;;;5084315;28;19963;-84
2024/02/07 12:41:40;;;;;;;;;;;;;;;;;;5076350;28;20029;-69
2024/02/07 12:44:07;;;;;;;;;;;;;;;;;;5065989;28;20346;-77
2024/02/07 12:46:34;;;;;;;;;;;;;;;;;;5066595;28;20096;-74
2024/02/07 12:49:01;;;;;;;;;;;;;;;;;;5075354;28;19973;-76
2024/02/07 12:51:29;;;;;;;;;;;;;;;;;;5072117;28;19928;-75
2024/02/07 12:53:56;;;;;;;;;;;;;;;;;;5075124;28;19937;-75
2024/02/07 12:56:23;;;;;;;;;;;;;;;;;;5077315;28;20349;-75
2024/02/07 12:58:50;;;;;;;;;;;;;;;;;;5076761;28;20436;-76
2024/02/07 13:01:17;;;;;;;;;;;;;;;;;;5078121;28;19982;-76
2024/02/07 13:03:44;;;;;;;;;;;;;;;;;;5079205;28;19967;-77
2024/02/07 13:06:14;;;;;;;;;;;;;;;;;;5064982;28;19929;-76
2024/02/07 13:08:41;;;;;;;;;;;;;;;;;;5085772;28;19928;-77
2024/02/07 13:11:09;;;;;;;;;;;;;;;;;;5065857;28;19968;-76
2024/02/07 13:13:38;;;;;;;;;;;;;;;;;;5064533;28;19929;-77
2024/02/07 13:16:09;;;;;;;;;;;;;;;;;;5076545;28;20015;-78
2024/02/07 13:18:36;;;;;;;;;;;;;;;;;;5063589;28;20423;-77
2024/02/07 13:21:05;;;;;;;;;;;;;;;;;;5061018;28;19971;-78
2024/02/07 13:23:33;;;;;;;;;;;;;;;;;;5057625;28;19940;-78
2024/02/07 13:26:00;;;;;;;;;;;;;;;;;;5059636;28;20346;-79
2024/02/07 13:28:27;;;;;;;;;;;;;;;;;;5060137;28;19939;-77
2024/02/07 13:30:55;;;;;;;;;;;;;;;;;;5063559;28;19997;-78
2024/02/07 13:33:22;;;;;;;;;;;;;;;;;;5065305;28;19928;-77
2024/02/07 13:35:51;;;;;;;;;;;;;;;;;;5065696;28;19983;-76
2024/02/07 13:38:18;;;;;;;;;;;;;;;;;;5064455;28;20360;-77
2024/02/07 13:40:46;;;;;;;;;;;;;;;;;;5065817;28;19967;-77
2024/02/07 13:43:13;;;;;;;;;;;;;;;;;;5064120;28;20015;-77
2024/02/07 13:45:40;;;;;;;;;;;;;;;;;;5065049;28;20015;-76
2024/02/07 13:48:07;;;;;;;;;;;;;;;;;;5063661;28;20052;-77
2024/02/07 13:50:35;;;;;;;;;;;;;;;;;;5058421;28;20426;-76
2024/02/07 13:53:04;;;;;;;;;;;;;;;;;;5062580;28;19996;-78
2024/02/07 13:55:31;;;;;;;;;;;;;;;;;;5059816;28;19959;-78
2024/02/07 13:57:58;;;;;;;;;;;;;;;;;;5063240;28;20300;-77
2024/02/07 14:00:25;;;;;;;;;;;;;;;;;;5067150;28;19932;-77
2024/02/07 14:02:52;;;;;;;;;;;;;;;;;;5065336;28;20738;-79
2024/02/07 14:05:19;;;;;;;;;;;;;;;;;;5061982;28;20039;-79
2024/02/07 14:07:46;;;;;;;;;;;;;;;;;;5060571;28;19928;-77
2024/02/07 14:10:14;;;;;;;;;;;;;;;;;;5064342;28;20488;-76
2024/02/07 14:12:41;;;;;;;;;;;;;;;;;;5062781;28;20016;-77
2024/02/07 14:15:08;;;;;;;;;;;;;;;;;;5063672;28;19967;-76
2024/02/07 14:17:35;;;;;;;;;;;;;;;;;;5061529;28;20453;-77
2024/02/07 14:20:02;;;;;;;;;;;;;;;;;;5064425;28;19980;-77
2024/02/07 14:22:29;;;;;;;;;;;;;;;;;;5063863;28;19983;-78
2024/02/07 14:24:57;;;;;;;;;;;;;;;;;;5066287;28;20369;-77
2024/02/07 14:27:24;;;;;;;;;;;;;;;;;;5067404;28;19934;-78
2024/02/07 14:29:51;;;;;;;;;;;;;;;;;;5063644;28;19968;-76
2024/02/07 14:32:18;;;;;;;;;;;;;;;;;;5064224;28;19932;-77
2024/02/07 14:34:46;;;;;;;;;;;;;;;;;;5062452;28;19928;-76
2024/02/07 14:37:13;;;;;;;;;;;;;;;;;;5062842;28;19928;-77
2024/02/07 14:39:40;;;;;;;;;;;;;;;;;;5062549;28;20502;-78
2024/02/07 14:42:08;;;;;;;;;;;;;;;;;;5061519;28;19929;-78
2024/02/07 14:44:35;;;;;;;;;;;;;;;;;;5059884;28;19929;-78
2024/02/07 14:47:02;;;;;;;;;;;;;;;;;;5062485;28;19979;-77
2024/02/07 14:49:30;;;;;;;;;;;;;;;;;;5062295;28;19964;-76
2024/02/07 14:51:57;;;;;;;;;;;;;;;;;;5064488;28;19932;-78
2024/02/07 14:54:24;;;;;;;;;;;;;;;;;;5066705;28;19959;-77
2024/02/07 14:56:53;;;;;;;;;;;;;;;;;;5074049;28;20371;-78
2024/02/07 14:59:20;;;;;;;;;;;;;;;;;;5065257;28;20475;-77
2024/02/07 15:01:47;;;;;;;;;;;;;;;;;;5075943;28;19981;-78
2024/02/07 15:04:14;;;;;;;;;;;;;;;;;;5065412;28;20706;-78
2024/02/07 15:06:41;;;;;;;;;;;;;;;;;;5067468;28;20620;-78
2024/02/07 15:09:08;;;;;;;;;;;;;;;;;;5069952;28;20299;-78
2024/02/07 15:11:35;;;;;;;;;;;;;;;;;;5068464;28;20347;-78
2024/02/07 15:14:02;;;;;;;;;;;;;;;;;;5073166;28;19929;-77
2024/02/07 15:16:31;;;;;;;;;;;;;;;;;;5068983;28;19972;-76
2024/02/07 15:18:59;;;;;;;;;;;;;;;;;;5073456;28;19936;-77
2024/02/07 15:21:26;;;;;;;;;;;;;;;;;;5076689;28;20043;-79
2024/02/07 15:23:53;;;;;;;;;;;;;;;;;;5066581;28;19974;-78
2024/02/07 15:26:20;;;;;;;;;;;;;;;;;;5065257;28;19938;-78
2024/02/07 15:28:47;;;;;;;;;;;;;;;;;;5067863;28;20015;-79
2024/02/07 15:31:14;;;;;;;;;;;;;;;;;;5071338;28;19935;-77
2024/02/07 15:33:41;;;;;;;;;;;;;;;;;;5073339;28;19968;-76
2024/02/07 15:36:08;;;;;;;;;;;;;;;;;;5068154;28;20027;-78
2024/02/07 15:38:35;;;;;;;;;;;;;;;;;;5076822;28;20025;-77
2024/02/07 15:41:03;;;;;;;;;;;;;;;;;;5077359;28;19935;-79
2024/02/07 15:43:30;;;;;;;;;;;;;;;;;;5066717;28;20421;-76
2024/02/07 15:45:57;;;;;;;;;;;;;;;;;;5058704;28;19954;-75
2024/02/07 15:48:24;;;;;;;;;;;;;;;;;;5070053;28;19931;-77
2024/02/07 15:50:52;;;;;;;;;;;;;;;;;;5073726;28;19936;-78
2024/02/07 15:53:19;;;;;;;;;;;;;;;;;;5074790;28;20341;-77
2024/02/07 15:55:46;;;;;;;;;;;;;;;;;;5072532;28;19938;-76
2024/02/07 15:58:16;;;;;;;;;;;;;;;;;;5066377;28;20094;-76
2024/02/07 16:00:43;;;;;;;;;;;;;;;;;;5073803;28;19932;-77
2024/02/07 16:03:10;;;;;;;;;;;;;;;;;;5071398;28;20054;-75
2024/02/07 16:05:37;;;;;;;;;;;;;;;;;;5071664;28;19935;-76
2024/02/07 16:08:06;;;;;;;;;;;;;;;;;;5073477;28;20115;-76
2024/02/07 16:10:33;;;;;;;;;;;;;;;;;;5069434;28;19928;-76
2024/02/07 16:13:00;;;;;;;;;;;;;;;;;;5067564;28;19959;-78
2024/02/07 16:15:28;;;;;;;;;;;;;;;;;;5062334;28;20031;-77
2024/02/07 16:17:55;;;;;;;;;;;;;;;;;;5063904;28;20222;-78
2024/02/07 16:20:22;;;;;;;;;;;;;;;;;;5065833;28;19967;-77
2024/02/07 16:22:49;;;;;;;;;;;;;;;;;;5064012;28;19932;-81
2024/02/07 16:25:16;;;;;;;;;;;;;;;;;;5072514;28;19929;-83
2024/02/07 16:27:45;;;;;;;;;;;;;;;;;;5071401;28;19964;-81
2024/02/07 16:30:12;;;;;;;;;;;;;;;;;;5076318;28;19925;-90
2024/02/07 16:32:39;;;;;;;;;;;;;;;;;;5083136;28;19976;-85
2024/02/07 16:35:07;;;;;;;;;;;;;;;;;;5080210;28;19933;-89
2024/02/07 16:37:34;;;;;;;;;;;;;;;;;;5076829;28;19928;-82
2024/02/07 16:40:01;;;;;;;;;;;;;;;;;;5072705;28;19932;-81
2024/02/07 16:42:29;;;;;;;;;;;;;;;;;;5072724;28;19928;-75
2024/02/07 16:44:56;;;;;;;;;;;;;;;;;;5071085;28;19943;-79
2024/02/07 16:47:23;;;;;;;;;;;;;;;;;;5081079;28;19944;-85
2024/02/07 16:49:50;;;;;;;;;;;;;;;;;;5074158;28;19986;-76
2024/02/07 16:52:20;;;;;;;;;;;;;;;;;;5090834;22;20031;-83
2024/02/07 16:54:50;;;;;;;;;;;;;;;;;;5048912;28;19978;-84
2024/02/07 16:57:30;;;;;;;;;;;;;;;;;;5048275;28;19933;-86
2024/02/07 16:59:58;;;;;;;;;;;;;;;;;;5049137;28;19982;-87
2024/02/07 17:02:25;;;;;;;;;;;;;;;;;;5052253;28;19936;-85
2024/02/07 17:04:52;;;;;;;;;;;;;;;;;;5053655;28;19936;-83
2024/02/07 17:07:28;;;;;;;;;;;;;;;;;;5053121;28;19933;-85
2024/02/07 17:09:55;;;;;;;;;;;;;;;;;;5053484;28;19948;-86
2024/02/07 17:12:22;;;;;;;;;;;;;;;;;;5044604;28;19929;-82
2024/02/07 17:14:49;;;;;;;;;;;;;;;;;;5051977;28;20364;-84
2024/02/07 17:17:16;;;;;;;;;;;;;;;;;;5049339;28;19928;-82
2024/02/07 17:19:43;;;;;;;;;;;;;;;;;;5050062;28;20426;-80
2024/02/07 17:22:11;;;;;;;;;;;;;;;;;;5048454;28;19969;-84
2024/02/07 17:24:38;;;;;;;;;;;;;;;;;;5050030;28;19995;-82
2024/02/07 17:27:05;;;;;;;;;;;;;;;;;;5048200;28;19929;-79
2024/02/07 17:29:32;;;;;;;;;;;;;;;;;;5043366;28;20020;-83
2024/02/07 17:31:59;;;;;;;;;;;;;;;;;;5050500;28;19935;-84
2024/02/07 17:34:26;;;;;;;;;;;;;;;;;;5051550;28;19936;-85
2024/02/07 17:36:55;;;;;;;;;;;;;;;;;;5046516;28;19932;-85
2024/02/07 17:39:22;;;;;;;;;;;;;;;;;;5052099;28;19958;-79
2024/02/07 17:41:49;;;;;;;;;;;;;;;;;;5050719;28;19929;-81
2024/02/07 17:44:17;;;;;;;;;;;;;;;;;;5042452;28;19980;-82
2024/02/07 17:46:44;;;;;;;;;;;;;;;;;;5055114;28;19928;-79
2024/02/07 17:49:11;;;;;;;;;;;;;;;;;;5046964;28;20024;-79
2024/02/07 17:51:38;;;;;;;;;;;;;;;;;;5046840;28;20038;-79
2024/02/07 17:54:06;;;;;;;;;;;;;;;;;;5039272;28;20349;-79